Time;durP1;ratioP1;P1;durP2;ratioP2;P2;SDS_P1;SDS_P2;PMS_P1;PMS_P2;Temp;Humidity;BMP_temperature;BMP_pressure;BME280_temperature;BME280_humidity;BME280_pressure;Samples;Min_cycle;Max_cycle;Signal;HPM_P1;HPM_P2
2022/10/18 00:00:39;;;;;;;13.40;6.68;;;;;;;;;;5067966;28;20049;-91
2022/10/18 00:03:11;;;;;;;12.27;5.97;;;;;;;;;;5072649;28;20048;-92
2022/10/18 00:05:43;;;;;;;14.93;6.53;;;;;;;;;;5088742;28;20043;-92
2022/10/18 00:08:11;;;;;;;15.50;6.93;;;;;;;;;;5073746;28;20044;-92
2022/10/18 00:10:39;;;;;;;8.63;5.80;;;;;;;;;;5074151;28;20039;-91
2022/10/18 00:13:07;;;;;;;13.05;6.65;;;;;;;;;;5073655;28;20032;-91
2022/10/18 00:15:35;;;;;;;10.63;5.53;;;;;;;;;;5072152;28;20563;-93
2022/10/18 00:18:03;;;;;;;19.70;6.50;;;;;;;;;;5074560;28;20056;-92
2022/10/18 00:20:31;;;;;;;13.75;6.63;;;;;;;;;;5075296;28;20040;-92
2022/10/18 00:22:59;;;;;;;13.68;6.32;;;;;;;;;;5074155;28;20558;-91
2022/10/18 00:25:27;;;;;;;18.88;6.15;;;;;;;;;;5074479;28;20113;-93
2022/10/18 00:27:55;;;;;;;16.88;6.88;;;;;;;;;;5075551;28;20040;-92
2022/10/18 00:30:24;;;;;;;12.65;7.22;;;;;;;;;;5074710;28;20044;-93
2022/10/18 00:32:51;;;;;;;14.93;5.40;;;;;;;;;;5069016;28;20439;-92
2022/10/18 00:35:24;;;;;;;12.95;7.07;;;;;;;;;;5086534;28;20032;-92
2022/10/18 00:38:17;;;;;;;15.43;5.97;;;;;;;;;;5074934;28;20036;-92
2022/10/18 00:40:47;;;;;;;12.75;6.47;;;;;;;;;;5073539;28;20043;-93
2022/10/18 00:43:17;;;;;;;16.95;6.57;;;;;;;;;;5072860;28;20082;-92
2022/10/18 00:45:43;;;;;;;14.32;6.10;;;;;;;;;;5069330;28;20048;-92
2022/10/18 00:48:14;;;;;;;15.73;7.15;;;;;;;;;;5070618;28;20041;-92
2022/10/18 00:50:51;;;;;;;13.10;6.43;;;;;;;;;;5071083;28;20043;-93
2022/10/18 00:53:20;;;;;;;12.52;6.20;;;;;;;;;;5058001;28;20036;-94
2022/10/18 00:55:48;;;;;;;14.98;6.40;;;;;;;;;;5073835;28;20032;-92
2022/10/18 00:58:18;;;;;;;15.45;6.95;;;;;;;;;;5070022;28;20044;-92
2022/10/18 01:01:11;;;;;;;13.55;7.55;;;;;;;;;;5073736;28;20040;-92
2022/10/18 01:03:38;;;;;;;13.13;7.13;;;;;;;;;;5073693;28;20039;-92
2022/10/18 01:06:07;;;;;;;12.90;6.82;;;;;;;;;;5068449;28;20044;-92
2022/10/18 01:08:54;;;;;;;15.63;7.10;;;;;;;;;;5074017;28;20106;-92
2022/10/18 01:11:43;;;;;;;17.65;7.78;;;;;;;;;;5075799;28;20048;-92
2022/10/18 01:14:32;;;;;;;12.20;7.13;;;;;;;;;;5069888;28;20044;-93
2022/10/18 01:17:18;;;;;;;17.83;7.90;;;;;;;;;;5072319;28;20055;-92
2022/10/18 01:20:16;;;;;;;15.93;7.65;;;;;;;;;;5067636;28;20126;-93
2022/10/18 01:23:11;;;;;;;16.92;7.45;;;;;;;;;;5074756;28;20402;-92
2022/10/18 01:26:10;;;;;;;18.40;9.27;;;;;;;;;;5075075;28;20050;-92
2022/10/18 01:28:52;;;;;;;15.05;7.88;;;;;;;;;;5073682;28;20037;-93
2022/10/18 01:31:24;;;;;;;16.65;7.93;;;;;;;;;;5069096;28;20119;-92
2022/10/18 01:33:57;;;;;;;14.65;7.50;;;;;;;;;;5075586;28;20508;-92
2022/10/18 01:36:46;;;;;;;14.85;7.80;;;;;;;;;;5073438;28;20097;-91
2022/10/18 01:39:20;;;;;;;16.95;8.38;;;;;;;;;;5073593;28;20041;-92
2022/10/18 01:41:56;;;;;;;16.95;8.18;;;;;;;;;;5073382;28;20478;-92
2022/10/18 01:44:25;;;;;;;16.30;8.90;;;;;;;;;;5092985;28;20076;-92
2022/10/18 01:46:55;;;;;;;18.27;9.05;;;;;;;;;;5076047;28;20064;-93
2022/10/18 01:49:25;;;;;;;19.95;8.23;;;;;;;;;;5076948;28;20033;-92
2022/10/18 01:51:53;;;;;;;15.57;7.60;;;;;;;;;;5097431;28;20123;-92
2022/10/18 01:54:32;;;;;;;16.73;8.65;;;;;;;;;;5071998;28;20114;-91
2022/10/18 01:57:34;;;;;;;18.60;7.80;;;;;;;;;;5086600;28;20028;-92
2022/10/18 02:00:13;;;;;;;18.17;7.97;;;;;;;;;;5091812;28;20032;-92
2022/10/18 02:02:49;;;;;;;20.60;8.38;;;;;;;;;;5077108;28;20055;-92
2022/10/18 02:05:27;;;;;;;15.13;7.88;;;;;;;;;;5075893;28;20036;-92
2022/10/18 02:08:29;;;;;;;16.95;8.95;;;;;;;;;;5089825;28;20413;-92
2022/10/18 02:11:08;;;;;;;16.33;8.70;;;;;;;;;;5071476;28;20461;-92
2022/10/18 02:13:39;;;;;;;20.65;8.93;;;;;;;;;;5076880;28;20443;-92
2022/10/18 02:16:13;;;;;;;20.48;9.25;;;;;;;;;;5077726;28;20036;-92
2022/10/18 02:19:34;;;;;;;20.38;8.40;;;;;;;;;;5077666;28;20393;-92
2022/10/18 02:22:03;;;;;;;19.25;8.45;;;;;;;;;;5077003;28;20040;-92
2022/10/18 02:24:40;;;;;;;18.77;8.35;;;;;;;;;;5075670;28;20036;-92
2022/10/18 02:27:08;;;;;;;17.70;9.00;;;;;;;;;;5076134;28;20040;-91
2022/10/18 02:29:36;;;;;;;17.48;8.63;;;;;;;;;;5079318;28;20036;-91
2022/10/18 02:32:53;;;;;;;23.70;8.65;;;;;;;;;;5075195;28;20127;-91
2022/10/18 02:35:54;;;;;;;22.58;9.23;;;;;;;;;;4979528;28;20054;-92
2022/10/18 02:38:47;;;;;;;14.88;8.07;;;;;;;;;;4975524;28;20544;-93
2022/10/18 02:41:22;;;;;;;19.60;9.23;;;;;;;;;;4980580;28;20046;-93
2022/10/18 02:43:49;;;;;;;20.92;10.10;;;;;;;;;;4968711;28;20038;-93
2022/10/18 02:46:19;;;;;;;23.50;8.68;;;;;;;;;;4979457;28;20527;-92
2022/10/18 02:48:55;;;;;;;25.08;9.32;;;;;;;;;;4979750;28;20573;-92
2022/10/18 02:51:24;;;;;;;16.63;9.80;;;;;;;;;;4977581;28;20042;-92
2022/10/18 02:53:55;;;;;;;21.45;9.70;;;;;;;;;;4974109;28;20142;-92
2022/10/18 02:56:23;;;;;;;17.45;9.68;;;;;;;;;;4962975;28;20492;-92
2022/10/18 02:58:51;;;;;;;17.10;8.68;;;;;;;;;;4977144;28;20055;-93
2022/10/18 03:01:19;;;;;;;16.73;9.63;;;;;;;;;;4976593;28;20042;-92
2022/10/18 03:03:52;;;;;;;16.80;8.25;;;;;;;;;;4961981;28;20049;-92
2022/10/18 03:06:19;;;;;;;16.00;8.18;;;;;;;;;;4970355;28;20043;-92
2022/10/18 03:08:47;;;;;;;18.05;9.38;;;;;;;;;;4978031;28;20043;-91
2022/10/18 03:11:40;;;;;;;16.58;8.80;;;;;;;;;;5005095;28;20063;-92
2022/10/18 03:14:15;;;;;;;18.42;9.82;;;;;;;;;;5079064;28;20482;-91
2022/10/18 03:16:43;;;;;;;23.70;9.82;;;;;;;;;;5075041;28;20127;-92
2022/10/18 03:19:11;;;;;;;22.52;9.70;;;;;;;;;;5071800;28;20141;-92
2022/10/18 03:21:39;;;;;;;24.48;9.50;;;;;;;;;;5075414;28;20039;-91
2022/10/18 03:24:07;;;;;;;23.33;10.63;;;;;;;;;;5075401;28;20123;-92
2022/10/18 03:26:35;;;;;;;24.52;10.98;;;;;;;;;;5076264;28;20395;-92
2022/10/18 03:29:03;;;;;;;23.60;10.35;;;;;;;;;;5074777;28;20047;-91
2022/10/18 03:31:35;;;;;;;21.85;11.10;;;;;;;;;;5075847;28;20043;-91
2022/10/18 03:34:03;;;;;;;25.02;10.27;;;;;;;;;;5073699;28;20482;-92
2022/10/18 03:36:33;;;;;;;18.88;9.40;;;;;;;;;;5078159;28;20051;-93
2022/10/18 03:39:00;;;;;;;19.63;9.55;;;;;;;;;;5074718;28;20035;-91
2022/10/18 03:41:27;;;;;;;17.55;9.75;;;;;;;;;;5074997;28;20037;-92
2022/10/18 03:43:55;;;;;;;21.63;10.38;;;;;;;;;;5075342;28;20032;-92
2022/10/18 03:46:27;;;;;;;28.17;10.75;;;;;;;;;;5059651;28;20032;-92
2022/10/18 03:48:55;;;;;;;20.10;10.90;;;;;;;;;;5075516;28;20040;-92
2022/10/18 03:51:32;;;;;;;23.40;10.55;;;;;;;;;;5075403;28;20040;-92
2022/10/18 03:53:59;;;;;;;24.65;10.60;;;;;;;;;;5058044;28;20044;-92
2022/10/18 03:56:27;;;;;;;21.38;10.38;;;;;;;;;;5077122;28;20094;-92
2022/10/18 03:58:56;;;;;;;23.27;11.05;;;;;;;;;;5071761;28;20036;-92
2022/10/18 04:01:23;;;;;;;22.02;10.40;;;;;;;;;;5072265;28;20033;-92
2022/10/18 04:03:51;;;;;;;19.23;10.43;;;;;;;;;;5076522;28;20117;-92
2022/10/18 04:06:43;;;;;;;21.00;11.00;;;;;;;;;;5076501;28;20165;-92
2022/10/18 04:09:15;;;;;;;22.23;10.02;;;;;;;;;;5078063;28;20045;-92
2022/10/18 04:11:43;;;;;;;21.50;10.95;;;;;;;;;;5071618;28;20438;-93
2022/10/18 04:14:11;;;;;;;22.45;10.18;;;;;;;;;;5074269;28;20043;-92
2022/10/18 04:16:39;;;;;;;26.50;11.07;;;;;;;;;;5075138;28;20044;-92
2022/10/18 04:19:12;;;;;;;26.30;11.43;;;;;;;;;;5075400;28;20474;-92
2022/10/18 04:21:39;;;;;;;20.02;10.32;;;;;;;;;;5090033;28;20109;-91
2022/10/18 04:24:07;;;;;;;24.10;10.00;;;;;;;;;;5075394;28;20117;-91
2022/10/18 04:26:36;;;;;;;23.33;11.32;;;;;;;;;;5076651;28;20498;-92
2022/10/18 04:29:03;;;;;;;23.27;9.82;;;;;;;;;;5076700;28;20040;-92
2022/10/18 04:31:31;;;;;;;21.55;11.88;;;;;;;;;;5072717;28;20052;-92
2022/10/18 04:34:03;;;;;;;20.83;10.82;;;;;;;;;;5068872;28;20494;-93
2022/10/18 04:36:31;;;;;;;20.65;10.27;;;;;;;;;;5076510;28;20043;-92
2022/10/18 04:38:59;;;;;;;21.27;10.38;;;;;;;;;;5073332;28;20086;-92
2022/10/18 04:41:27;;;;;;;25.20;11.07;;;;;;;;;;5053804;28;20090;-91
2022/10/18 04:43:56;;;;;;;21.58;10.00;;;;;;;;;;5075270;28;20060;-92
2022/10/18 04:46:29;;;;;;;20.30;10.63;;;;;;;;;;5076837;28;20553;-92
2022/10/18 04:49:00;;;;;;;18.38;9.45;;;;;;;;;;5074126;28;20086;-92
2022/10/18 04:51:28;;;;;;;18.92;9.23;;;;;;;;;;5071070;28;20036;-92
2022/10/18 04:54:19;;;;;;;18.75;10.02;;;;;;;;;;5071988;28;20029;-92
2022/10/18 04:56:51;;;;;;;17.55;9.23;;;;;;;;;;5074195;28;20117;-92
2022/10/18 04:59:19;;;;;;;20.33;9.30;;;;;;;;;;5075670;28;20043;-92
2022/10/18 05:01:47;;;;;;;18.42;10.25;;;;;;;;;;5088811;28;20037;-91
2022/10/18 05:04:15;;;;;;;20.40;9.63;;;;;;;;;;5074001;28;20391;-91
2022/10/18 05:06:47;;;;;;;21.70;10.32;;;;;;;;;;5071489;28;20120;-92
2022/10/18 05:09:15;;;;;;;19.98;10.30;;;;;;;;;;5075975;28;20028;-91
2022/10/18 05:12:31;;;;;;;23.33;9.65;;;;;;;;;;5070549;28;20162;-92
2022/10/18 05:14:59;;;;;;;22.58;9.85;;;;;;;;;;5041382;28;20406;-92
2022/10/18 05:17:27;;;;;;;19.88;10.23;;;;;;;;;;5076006;28;20040;-92
2022/10/18 05:19:55;;;;;;;23.83;10.20;;;;;;;;;;5078174;28;20041;-92
2022/10/18 05:22:23;;;;;;;24.48;11.32;;;;;;;;;;5077588;28;20494;-92
2022/10/18 05:24:51;;;;;;;29.80;13.10;;;;;;;;;;5078213;28;20134;-92
2022/10/18 05:27:20;;;;;;;22.95;10.57;;;;;;;;;;5064731;28;20040;-91
2022/10/18 05:29:52;;;;;;;25.58;11.23;;;;;;;;;;5080114;28;20036;-92
2022/10/18 05:32:19;;;;;;;24.80;10.73;;;;;;;;;;5077309;28;20043;-92
2022/10/18 05:34:47;;;;;;;26.55;11.82;;;;;;;;;;5080626;28;20039;-91
2022/10/18 05:37:39;;;;;;;25.00;11.25;;;;;;;;;;5081372;28;20028;-91
2022/10/18 05:40:08;;;;;;;28.83;12.77;;;;;;;;;;5079571;28;20039;-91
2022/10/18 05:42:35;;;;;;;28.92;12.32;;;;;;;;;;5077289;28;20124;-92
2022/10/18 05:45:04;;;;;;;29.55;11.90;;;;;;;;;;5078418;28;20045;-92
2022/10/18 05:47:35;;;;;;;28.13;13.75;;;;;;;;;;5080171;28;20048;-92
2022/10/18 05:50:08;;;;;;;34.15;14.52;;;;;;;;;;5075980;28;20035;-92
2022/10/18 05:52:35;;;;;;;27.90;14.02;;;;;;;;;;5095704;28;20134;-92
2022/10/18 05:55:08;;;;;;;33.03;13.68;;;;;;;;;;5076772;28;20037;-91
2022/10/18 05:57:35;;;;;;;39.50;14.02;;;;;;;;;;5074803;28;20036;-92
2022/10/18 06:00:04;;;;;;;34.83;14.18;;;;;;;;;;5072455;28;20123;-92
2022/10/18 06:02:37;;;;;;;29.38;13.45;;;;;;;;;;5072823;28;20494;-92
2022/10/18 06:05:06;;;;;;;34.40;14.40;;;;;;;;;;5078713;28;20048;-91
2022/10/18 06:07:33;;;;;;;38.65;14.85;;;;;;;;;;5077326;28;20055;-91
2022/10/18 06:10:01;;;;;;;34.30;15.23;;;;;;;;;;5071464;28;20040;-92
2022/10/18 06:12:29;;;;;;;38.10;15.65;;;;;;;;;;5073477;28;20036;-92
2022/10/18 06:14:57;;;;;;;37.58;14.45;;;;;;;;;;5077771;28;20040;-92
2022/10/18 06:17:25;;;;;;;38.88;15.15;;;;;;;;;;5076831;28;20039;-93
2022/10/18 06:19:59;;;;;;;32.72;14.55;;;;;;;;;;5091632;28;20085;-93
2022/10/18 06:22:27;;;;;;;37.30;15.75;;;;;;;;;;5055557;28;20475;-91
2022/10/18 06:24:55;;;;;;;40.40;15.80;;;;;;;;;;5073615;28;20054;-90
2022/10/18 06:27:27;;;;;;;37.03;16.10;;;;;;;;;;5077348;28;20055;-91
2022/10/18 06:29:55;;;;;;;37.25;16.15;;;;;;;;;;5075061;28;20561;-90
2022/10/18 06:32:23;;;;;;;32.70;14.70;;;;;;;;;;5068205;28;20093;-91
2022/10/18 06:35:17;;;;;;;31.05;14.57;;;;;;;;;;5074513;28;20040;-90
2022/10/18 06:37:49;;;;;;;27.42;13.93;;;;;;;;;;5090752;28;20123;-90
2022/10/18 06:40:17;;;;;;;27.33;13.40;;;;;;;;;;5078360;28;20434;-91
2022/10/18 06:42:55;;;;;;;30.95;13.82;;;;;;;;;;5077991;28;20400;-88
2022/10/18 06:45:38;;;;;;;30.20;13.73;;;;;;;;;;5093670;28;20409;-89
2022/10/18 06:48:06;;;;;;;24.02;12.40;;;;;;;;;;5077320;28;20036;-89
2022/10/18 06:50:39;;;;;;;33.30;14.00;;;;;;;;;;5089786;28;20036;-88
2022/10/18 06:53:11;;;;;;;29.33;12.82;;;;;;;;;;5074115;28;20112;-88
2022/10/18 06:55:39;;;;;;;33.03;14.35;;;;;;;;;;5089973;28;21387;-88
2022/10/18 06:58:07;;;;;;;32.03;15.02;;;;;;;;;;5074367;28;20048;-88
2022/10/18 07:00:35;;;;;;;37.33;13.98;;;;;;;;;;5070868;28;20060;-88
2022/10/18 07:03:33;;;;;;;31.23;12.80;;;;;;;;;;5093959;28;20028;-88
2022/10/18 07:06:06;;;;;;;30.95;15.05;;;;;;;;;;5076609;28;20800;-88
2022/10/18 07:08:40;;;;;;;29.83;13.70;;;;;;;;;;5073720;28;20499;-88
2022/10/18 07:11:16;;;;;;;28.92;13.40;;;;;;;;;;5077189;28;20039;-88
2022/10/18 07:13:44;;;;;;;34.10;14.57;;;;;;;;;;5076671;28;20040;-88
2022/10/18 07:16:15;;;;;;;30.17;13.63;;;;;;;;;;5075739;28;20789;-90
2022/10/18 07:19:07;;;;;;;33.20;12.85;;;;;;;;;;5093182;28;20031;-90
2022/10/18 07:21:35;;;;;;;33.90;14.10;;;;;;;;;;5058686;28;20048;-90
2022/10/18 07:24:04;;;;;;;34.92;14.98;;;;;;;;;;5075863;28;20068;-90
2022/10/18 07:26:33;;;;;;;37.22;14.27;;;;;;;;;;5078065;28;20118;-91
2022/10/18 07:29:07;;;;;;;34.45;13.70;;;;;;;;;;5078660;28;20158;-91
2022/10/18 07:31:39;;;;;;;33.38;13.73;;;;;;;;;;5091756;28;20048;-90
2022/10/18 07:34:12;;;;;;;33.17;13.20;;;;;;;;;;5077850;28;20050;-91
2022/10/18 07:36:45;;;;;;;32.13;15.10;;;;;;;;;;5075341;28;20119;-91
2022/10/18 07:39:17;;;;;;;36.67;14.48;;;;;;;;;;5069339;28;20479;-90
2022/10/18 07:41:50;;;;;;;29.23;13.85;;;;;;;;;;5074942;28;20036;-91
2022/10/18 07:44:17;;;;;;;36.92;14.60;;;;;;;;;;5074123;28;20043;-91
2022/10/18 07:47:09;;;;;;;30.33;13.88;;;;;;;;;;5075663;28;20036;-90
2022/10/18 07:49:41;;;;;;;29.15;12.52;;;;;;;;;;5070734;28;20115;-91
2022/10/18 07:52:10;;;;;;;31.25;13.73;;;;;;;;;;5076881;28;20063;-91
2022/10/18 07:54:37;;;;;;;28.25;14.05;;;;;;;;;;5073542;28;20040;-90
2022/10/18 07:57:09;;;;;;;29.00;13.13;;;;;;;;;;5077053;28;20123;-90
2022/10/18 07:59:37;;;;;;;26.60;13.00;;;;;;;;;;5071284;28;20142;-90
2022/10/18 08:02:05;;;;;;;28.45;12.05;;;;;;;;;;5071267;28;20048;-91
2022/10/18 08:04:33;;;;;;;30.25;11.82;;;;;;;;;;5074975;28;20043;-91
2022/10/18 08:07:01;;;;;;;29.50;12.77;;;;;;;;;;5074403;28;20995;-90
2022/10/18 08:12:22;;;;;;;30.70;12.77;;;;;;;;;;5072206;28;20490;-90
2022/10/18 08:14:49;;;;;;;29.77;12.32;;;;;;;;;;5074808;28;20044;-90
2022/10/18 08:17:17;;;;;;;29.60;12.30;;;;;;;;;;5071721;28;20040;-91
2022/10/18 08:19:49;;;;;;;30.33;13.40;;;;;;;;;;5060223;28;20093;-90
2022/10/18 08:22:39;;;;;;;28.38;12.88;;;;;;;;;;5092311;28;20375;-90
2022/10/18 08:25:31;;;;;;;34.97;12.23;;;;;;;;;;5075588;28;20041;-90
2022/10/18 08:28:00;;;;;;;27.52;12.15;;;;;;;;;;5070445;28;20509;-91
2022/10/18 08:30:27;;;;;;;33.72;12.70;;;;;;;;;;5076664;28;20035;-91
2022/10/18 08:33:19;;;;;;;30.42;13.05;;;;;;;;;;5072409;28;20490;-90
2022/10/18 08:35:58;;;;;;;28.80;12.02;;;;;;;;;;5072298;28;20044;-91
2022/10/18 08:38:29;;;;;;;26.75;12.40;;;;;;;;;;5075443;28;20066;-91
2022/10/18 08:41:47;;;;;;;24.75;11.98;;;;;;;;;;5064872;28;20036;-91
2022/10/18 08:44:18;;;;;;;23.48;11.32;;;;;;;;;;5073009;28;20151;-91
2022/10/18 08:46:49;;;;;;;24.30;11.02;;;;;;;;;;5072094;28;20497;-90
2022/10/18 08:49:27;;;;;;;22.35;10.60;;;;;;;;;;5075357;28;20044;-90
2022/10/18 08:51:56;;;;;;;20.52;9.50;;;;;;;;;;5090427;28;20040;-90
2022/10/18 08:54:43;;;;;;;23.42;9.73;;;;;;;;;;5078206;28;20055;-91
2022/10/18 08:57:59;;;;;;;29.23;10.68;;;;;;;;;;5079141;28;20516;-91
2022/10/18 09:01:18;;;;;;;23.10;9.68;;;;;;;;;;5080596;28;20032;-91
2022/10/18 09:04:04;;;;;;;21.90;10.00;;;;;;;;;;5082195;28;20043;-90
2022/10/18 09:06:34;;;;;;;21.23;9.00;;;;;;;;;;5080965;28;20036;-89
2022/10/18 09:09:26;;;;;;;19.27;8.00;;;;;;;;;;5079506;28;20068;-90
2022/10/18 09:12:39;;;;;;;25.75;9.63;;;;;;;;;;5077105;28;20050;-90
2022/10/18 09:15:14;;;;;;;20.42;8.20;;;;;;;;;;5061131;28;20039;-90
2022/10/18 09:18:09;;;;;;;24.17;8.82;;;;;;;;;;5091908;28;20040;-90
2022/10/18 09:21:04;;;;;;;21.30;8.63;;;;;;;;;;5073051;28;20127;-91
2022/10/18 09:24:06;;;;;;;25.38;9.75;;;;;;;;;;5077643;28;20038;-91
2022/10/18 09:26:56;;;;;;;22.95;8.73;;;;;;;;;;5077376;28;20049;-87
2022/10/18 09:29:38;;;;;;;22.23;9.07;;;;;;;;;;5079463;28;20097;-91
2022/10/18 09:32:33;;;;;;;24.88;9.13;;;;;;;;;;5089481;28;20086;-91
2022/10/18 09:35:27;;;;;;;22.88;9.13;;;;;;;;;;5076940;28;20827;-91
2022/10/18 09:38:02;;;;;;;22.60;9.43;;;;;;;;;;5065431;28;20059;-90
2022/10/18 09:40:35;;;;;;;25.02;8.15;;;;;;;;;;5079935;28;20448;-91
2022/10/18 09:43:10;;;;;;;20.95;8.88;;;;;;;;;;5070784;28;20036;-91
2022/10/18 09:45:43;;;;;;;25.42;9.52;;;;;;;;;;5071668;28;20048;-91
2022/10/18 09:48:48;;;;;;;17.23;7.22;;;;;;;;;;5077804;28;20110;-91
2022/10/18 09:51:25;;;;;;;20.77;7.43;;;;;;;;;;5092515;28;20025;-90
2022/10/18 09:54:21;;;;;;;22.50;7.18;;;;;;;;;;5073677;28;20064;-90
2022/10/18 09:57:13;;;;;;;14.18;6.30;;;;;;;;;;5078102;28;20040;-91
2022/10/18 09:59:48;;;;;;;22.35;6.85;;;;;;;;;;5072811;28;20431;-91
2022/10/18 10:02:20;;;;;;;25.58;8.25;;;;;;;;;;5074426;28;20044;-91
2022/10/18 10:04:52;;;;;;;17.85;6.93;;;;;;;;;;5068745;28;20044;-91
2022/10/18 10:07:34;;;;;;;19.75;7.38;;;;;;;;;;5075113;28;20035;-91
2022/10/18 10:10:22;;;;;;;20.40;6.65;;;;;;;;;;5075232;28;20040;-91
2022/10/18 10:13:02;;;;;;;19.80;7.22;;;;;;;;;;5094770;28;20048;-91
2022/10/18 10:15:30;;;;;;;16.02;6.97;;;;;;;;;;5090211;28;20094;-91
2022/10/18 10:18:19;;;;;;;18.10;7.35;;;;;;;;;;5072581;28;20439;-91
2022/10/18 10:23:53;;;;;;;18.65;7.65;;;;;;;;;;5092565;28;20086;-90
2022/10/18 10:26:30;;;;;;;17.45;7.78;;;;;;;;;;5078029;28;20082;-90
2022/10/18 10:28:58;;;;;;;17.77;8.35;;;;;;;;;;5076666;28;21810;-90
2022/10/18 10:31:30;;;;;;;17.58;7.70;;;;;;;;;;5071655;28;20036;-91
2022/10/18 10:34:04;;;;;;;15.40;7.00;;;;;;;;;;5072883;28;20143;-92
2022/10/18 10:36:50;;;;;;;15.73;6.72;;;;;;;;;;5091133;28;20150;-91
2022/10/18 10:39:20;;;;;;;18.15;6.60;;;;;;;;;;5073463;28;20036;-91
2022/10/18 10:41:53;;;;;;;16.70;5.60;;;;;;;;;;5076470;28;20047;-91
2022/10/18 10:44:29;;;;;;;13.88;5.80;;;;;;;;;;5072797;28;20040;-91
2022/10/18 10:46:56;;;;;;;12.52;5.43;;;;;;;;;;5089483;27;20055;-91
2022/10/18 10:49:41;;;;;;;12.88;5.68;;;;;;;;;;5075156;28;20051;-91
2022/10/18 10:52:34;;;;;;;15.60;5.50;;;;;;;;;;5075783;28;21343;-91
2022/10/18 10:55:02;;;;;;;17.67;5.45;;;;;;;;;;5073022;28;20056;-91
2022/10/18 10:57:51;;;;;;;14.75;5.57;;;;;;;;;;5073825;28;20136;-91
2022/10/18 11:00:33;;;;;;;19.30;7.07;;;;;;;;;;5077766;28;20051;-91
2022/10/18 11:03:22;;;;;;;18.30;8.65;;;;;;;;;;5070900;28;20619;-91
2022/10/18 11:05:57;;;;;;;21.35;6.75;;;;;;;;;;5090283;28;20045;-91
2022/10/18 11:08:31;;;;;;;16.67;5.70;;;;;;;;;;5075854;28;20109;-90
2022/10/18 11:11:12;;;;;;;17.33;5.57;;;;;;;;;;5075170;28;20116;-90
2022/10/18 11:13:50;;;;;;;11.05;4.97;;;;;;;;;;5077872;28;20482;-91
2022/10/18 11:16:47;;;;;;;17.13;5.50;;;;;;;;;;5073455;28;20219;-91
2022/10/18 11:19:37;;;;;;;15.00;4.70;;;;;;;;;;5074476;28;20033;-91
2022/10/18 11:22:39;;;;;;;17.15;5.50;;;;;;;;;;5076600;28;20029;-91
2022/10/18 11:25:14;;;;;;;13.00;4.70;;;;;;;;;;5090374;28;20125;-91
2022/10/18 11:27:59;;;;;;;19.45;5.30;;;;;;;;;;5092180;28;20045;-91
2022/10/18 11:30:30;;;;;;;14.93;5.18;;;;;;;;;;5074809;28;20127;-91
2022/10/18 11:33:35;;;;;;;14.38;4.30;;;;;;;;;;5076202;28;20028;-90
2022/10/18 11:36:35;;;;;;;14.27;4.70;;;;;;;;;;5089014;28;20043;-91
2022/10/18 11:39:18;;;;;;;17.02;5.45;;;;;;;;;;5062348;28;20040;-91
2022/10/18 11:41:50;;;;;;;13.50;5.03;;;;;;;;;;5076190;28;20041;-91
2022/10/18 11:44:49;;;;;;;11.25;4.55;;;;;;;;;;5078242;28;20044;-90
2022/10/18 11:47:27;;;;;;;17.60;5.30;;;;;;;;;;5070370;28;20044;-90
2022/10/18 11:50:05;;;;;;;15.07;4.68;;;;;;;;;;5074552;28;20049;-91
2022/10/18 11:52:49;;;;;;;15.13;4.13;;;;;;;;;;5090332;28;20140;-91
2022/10/18 11:55:25;;;;;;;16.65;6.05;;;;;;;;;;5074379;28;20041;-91
2022/10/18 11:58:47;;;;;;;12.85;4.43;;;;;;;;;;5073163;28;20131;-91
2022/10/18 12:01:16;;;;;;;12.05;3.88;;;;;;;;;;5065875;28;20125;-90
2022/10/18 12:04:02;;;;;;;11.75;3.65;;;;;;;;;;5074585;28;20039;-91
2022/10/18 12:09:39;;;;;;;14.95;3.97;;;;;;;;;;5074189;28;20051;-89
2022/10/18 12:12:19;;;;;;;15.88;3.53;;;;;;;;;;5074198;28;20052;-90
2022/10/18 12:14:56;;;;;;;9.90;3.03;;;;;;;;;;5078021;28;20045;-90
2022/10/18 12:17:29;;;;;;;16.10;4.15;;;;;;;;;;5069862;28;20123;-90
2022/10/18 12:20:41;;;;;;;10.70;3.38;;;;;;;;;;5072576;28;20048;-91
2022/10/18 12:23:15;;;;;;;16.30;3.13;;;;;;;;;;5059056;28;20455;-91
2022/10/18 12:25:52;;;;;;;12.57;2.42;;;;;;;;;;5045286;28;20559;-91
2022/10/18 12:28:50;;;;;;;14.20;2.70;;;;;;;;;;5066899;28;20035;-91
2022/10/18 12:31:25;;;;;;;10.30;2.20;;;;;;;;;;5070731;28;20052;-91
2022/10/18 12:33:58;;;;;;;11.52;2.28;;;;;;;;;;5071364;28;20036;-90
2022/10/18 12:36:33;;;;;;;8.82;2.10;;;;;;;;;;5074293;28;20047;-91
2022/10/18 12:39:30;;;;;;;7.25;1.70;;;;;;;;;;5090279;28;20094;-91
2022/10/18 12:42:45;;;;;;;11.00;1.75;;;;;;;;;;5074384;28;20036;-91
2022/10/18 12:45:23;;;;;;;4.80;1.98;;;;;;;;;;5072785;28;20102;-91
2022/10/18 12:47:50;;;;;;;11.23;2.30;;;;;;;;;;5071643;28;20402;-91
2022/10/18 12:50:29;;;;;;;13.10;2.38;;;;;;;;;;5076481;28;20506;-91
2022/10/18 12:54:10;;;;;;;8.32;1.70;;;;;;;;;;5075027;28;20089;-91
2022/10/18 12:56:43;;;;;;;11.88;2.63;;;;;;;;;;5064209;28;20049;-91
2022/10/18 12:59:13;;;;;;;13.77;1.90;;;;;;;;;;5087315;28;20052;-91
2022/10/18 13:01:49;;;;;;;7.20;1.60;;;;;;;;;;5058433;28;20041;-91
2022/10/18 13:04:28;;;;;;;7.78;2.33;;;;;;;;;;5061629;28;20127;-91
2022/10/18 13:07:04;;;;;;;12.48;2.28;;;;;;;;;;5073782;28;20044;-92
2022/10/18 13:10:01;;;;;;;13.95;2.17;;;;;;;;;;5072317;28;20067;-91
2022/10/18 13:12:39;;;;;;;12.00;1.65;;;;;;;;;;5071953;28;20056;-91
2022/10/18 13:15:40;;;;;;;10.93;1.73;;;;;;;;;;5073876;28;20036;-92
2022/10/18 13:22:00;;;;;;;5.70;1.55;;;;;;;;;;5071893;28;20147;-91
2022/10/18 13:24:27;;;;;;;12.57;1.65;;;;;;;;;;5075946;28;20040;-90
2022/10/18 13:27:27;;;;;;;7.90;1.63;;;;;;;;;;5072928;28;20039;-91
2022/10/18 13:30:31;;;;;;;7.63;1.83;;;;;;;;;;5070530;28;20059;-91
2022/10/18 13:33:35;;;;;;;12.45;2.67;;;;;;;;;;5056530;28;20028;-91
2022/10/18 13:36:16;;;;;;;7.45;1.77;;;;;;;;;;5070693;28;20121;-91
2022/10/18 13:39:19;;;;;;;6.88;1.60;;;;;;;;;;5071840;28;20055;-91
2022/10/18 13:41:45;;;;;;;8.63;1.85;;;;;;;;;;5075227;28;20509;-91
2022/10/18 13:44:22;;;;;;;6.85;1.00;;;;;;;;;;5061453;28;20054;-91
2022/10/18 13:46:50;;;;;;;12.88;1.95;;;;;;;;;;5069570;28;20093;-91
2022/10/18 13:50:04;;;;;;;11.73;1.40;;;;;;;;;;5071515;28;20033;-92
2022/10/18 13:52:50;;;;;;;6.85;1.48;;;;;;;;;;5076656;28;20115;-91
2022/10/18 13:55:56;;;;;;;12.85;1.90;;;;;;;;;;5068833;28;20127;-91
2022/10/18 13:58:55;;;;;;;10.80;2.72;;;;;;;;;;5073059;28;20045;-91
2022/10/18 14:01:50;;;;;;;6.43;1.63;;;;;;;;;;5071695;28;21010;-91
2022/10/18 14:04:45;;;;;;;6.03;1.20;;;;;;;;;;5074067;28;20043;-90
2022/10/18 14:07:18;;;;;;;7.85;1.38;;;;;;;;;;5080053;28;20123;-92
2022/10/18 14:09:51;;;;;;;10.30;2.00;;;;;;;;;;5079271;28;20039;-91
2022/10/18 14:12:24;;;;;;;8.85;1.70;;;;;;;;;;5074319;28;20047;-91
2022/10/18 14:15:15;;;;;;;6.63;1.38;;;;;;;;;;5072703;28;20445;-92
2022/10/18 14:17:46;;;;;;;10.57;1.67;;;;;;;;;;5076463;28;20037;-92
2022/10/18 14:20:32;;;;;;;8.75;1.80;;;;;;;;;;5075999;28;20082;-91
2022/10/18 14:23:19;;;;;;;9.85;1.42;;;;;;;;;;5075537;28;20037;-92
2022/10/18 14:26:05;;;;;;;7.32;1.70;;;;;;;;;;5077119;28;20048;-91
2022/10/18 14:28:33;;;;;;;7.80;1.30;;;;;;;;;;5075273;28;20052;-91
2022/10/18 14:31:25;;;;;;;8.02;1.40;;;;;;;;;;5090371;28;20539;-92
2022/10/18 14:33:58;;;;;;;6.35;1.10;;;;;;;;;;5070633;28;20063;-91
2022/10/18 14:36:29;;;;;;;9.68;1.60;;;;;;;;;;5075974;28;20083;-91
2022/10/18 14:39:27;;;;;;;7.75;1.58;;;;;;;;;;5077631;28;20204;-92
2022/10/18 14:41:57;;;;;;;9.07;1.50;;;;;;;;;;5061939;28;20165;-91
2022/10/18 14:44:29;;;;;;;9.18;1.30;;;;;;;;;;5074813;28;20074;-92
2022/10/18 14:47:18;;;;;;;13.77;1.65;;;;;;;;;;5076795;28;20055;-92
2022/10/18 14:49:46;;;;;;;10.30;1.50;;;;;;;;;;5072282;28;20619;-92
2022/10/18 14:52:24;;;;;;;8.90;1.60;;;;;;;;;;5076709;28;20036;-91
2022/10/18 14:54:59;;;;;;;15.68;2.25;;;;;;;;;;5089829;28;20035;-92
2022/10/18 14:57:29;;;;;;;7.15;1.65;;;;;;;;;;5076237;28;20492;-92
2022/10/18 15:00:06;;;;;;;4.75;1.20;;;;;;;;;;5073985;28;20044;-91
2022/10/18 15:02:37;;;;;;;7.72;1.40;;;;;;;;;;5073950;28;20049;-92
2022/10/18 15:05:17;;;;;;;7.88;1.50;;;;;;;;;;5076195;28;20142;-91
2022/10/18 15:07:47;;;;;;;10.77;1.30;;;;;;;;;;5073640;28;20036;-92
2022/10/18 15:10:18;;;;;;;10.68;1.60;;;;;;;;;;5074682;28;20781;-92
2022/10/18 15:12:47;;;;;;;11.70;2.03;;;;;;;;;;5076247;28;20056;-92
2022/10/18 15:15:36;;;;;;;5.45;1.25;;;;;;;;;;5075774;28;20136;-90
2022/10/18 15:18:05;;;;;;;14.63;1.95;;;;;;;;;;5057706;28;20071;-91
2022/10/18 15:20:41;;;;;;;10.93;1.38;;;;;;;;;;5089738;28;20048;-92
2022/10/18 15:23:22;;;;;;;18.70;2.65;;;;;;;;;;5072729;28;20395;-92
2022/10/18 15:25:52;;;;;;;10.98;1.30;;;;;;;;;;5079537;28;20067;-92
2022/10/18 15:28:29;;;;;;;6.88;1.85;;;;;;;;;;5075923;28;20044;-92
2022/10/18 15:31:02;;;;;;;6.88;1.27;;;;;;;;;;5074274;28;20084;-92
2022/10/18 15:33:33;;;;;;;7.30;1.48;;;;;;;;;;5088984;28;20094;-91
2022/10/18 15:36:11;;;;;;;8.82;1.67;;;;;;;;;;5074094;28;20487;-92
2022/10/18 15:39:07;;;;;;;9.55;1.50;;;;;;;;;;5088428;28;20045;-91